createdAt,value
2019-03-16T00:01:00.299Z,79.00
2019-03-16T00:03:54.917Z,79.30
2019-03-16T00:06:25.942Z,79.60
2019-03-16T00:08:56.859Z,79.60
2019-03-16T00:11:27.770Z,79.60
2019-03-16T00:14:11.358Z,80.10
2019-03-16T00:16:42.246Z,80.30
2019-03-16T00:19:13.017Z,81.20
2019-03-16T00:21:43.763Z,81.20
2019-03-16T00:24:14.752Z,81.10
2019-03-16T00:26:45.529Z,81.20
2019-03-16T00:29:16.276Z,80.60
2019-03-16T00:31:47.576Z,80.70
2019-03-16T00:34:20.501Z,80.90
2019-03-16T00:36:51.480Z,81.00
2019-03-16T00:39:22.284Z,80.40
2019-03-16T00:41:52.923Z,79.50
2019-03-16T00:44:25.078Z,79.20
2019-03-16T00:47:16.032Z,79.30
2019-03-16T00:49:47.044Z,79.60
2019-03-16T00:52:17.724Z,79.40
2019-03-16T00:54:49.629Z,78.90
2019-03-16T00:57:20.590Z,79.00
2019-03-16T00:59:51.310Z,77.90
2019-03-16T01:02:27.136Z,77.60
2019-03-16T01:04:54.384Z,77.10
2019-03-16T01:07:25.460Z,77.60
2019-03-16T01:09:56.207Z,77.40
2019-03-16T01:12:27.107Z,77.30
2019-03-16T01:15:16.625Z,77.10
2019-03-16T01:17:47.512Z,77.00
2019-03-16T01:20:18.610Z,77.00
2019-03-16T01:22:50.756Z,76.90
2019-03-16T01:25:28.754Z,77.50
2019-03-16T01:27:59.476Z,77.80
2019-03-16T01:30:32.601Z,78.00
2019-03-16T01:33:03.853Z,78.20
2019-03-16T01:35:34.587Z,79.10
2019-03-16T01:38:05.445Z,79.90
2019-03-16T01:40:36.352Z,80.70
2019-03-16T01:43:07.090Z,81.30
2019-03-16T01:45:38.414Z,81.80
2019-03-16T01:48:09.269Z,82.10
2019-03-16T01:50:40.277Z,82.70
2019-03-16T01:53:11.169Z,83.00
2019-03-16T01:55:41.952Z,82.80
2019-03-16T01:58:12.863Z,82.90
2019-03-16T02:00:43.528Z,83.20
2019-03-16T02:03:14.308Z,83.00
2019-03-16T02:05:45.673Z,83.20
2019-03-16T02:08:16.901Z,83.20
2019-03-16T02:10:47.532Z,83.60
2019-03-16T02:13:18.338Z,83.70
2019-03-16T02:15:49.080Z,83.20
2019-03-16T02:18:19.812Z,83.20
2019-03-16T02:20:50.864Z,83.20
2019-03-16T02:23:21.620Z,83.40
2019-03-16T02:26:22.186Z,83.20
2019-03-16T02:28:52.916Z,82.20
2019-03-16T02:31:23.745Z,82.60
2019-03-16T02:33:55.066Z,82.50
2019-03-16T02:36:25.784Z,82.20
2019-03-16T02:38:56.554Z,81.90
2019-03-16T02:41:27.478Z,81.90
2019-03-16T02:43:58.239Z,82.00
2019-03-16T02:46:29.198Z,83.00
2019-03-16T02:49:00.034Z,82.60
2019-03-16T02:51:30.852Z,82.40
2019-03-16T02:54:01.582Z,82.30
2019-03-16T02:56:32.443Z,82.40
2019-03-16T02:59:03.117Z,82.50
2019-03-16T03:01:34.106Z,82.70
2019-03-16T03:04:07.149Z,82.80
2019-03-16T03:06:37.918Z,82.60
2019-03-16T03:09:09.754Z,82.50
2019-03-16T03:11:40.892Z,82.80
2019-03-16T03:14:11.665Z,83.00
2019-03-16T03:16:42.396Z,83.30
2019-03-16T03:19:13.340Z,83.30
2019-03-16T03:21:44.080Z,83.40
2019-03-16T03:24:14.813Z,83.40
2019-03-16T03:26:45.716Z,83.30
2019-03-16T03:29:16.492Z,82.70
2019-03-16T03:31:47.237Z,82.60
2019-03-16T03:34:18.126Z,82.00
2019-03-16T03:36:49.277Z,81.90
2019-03-16T03:39:20.260Z,81.90
2019-03-16T03:41:51.224Z,82.10
2019-03-16T03:44:22.024Z,82.10
2019-03-16T03:46:52.713Z,82.10
2019-03-16T03:49:23.703Z,82.10
2019-03-16T03:51:54.654Z,82.10
2019-03-16T03:54:25.703Z,82.30
2019-03-16T03:56:56.701Z,82.10
2019-03-16T03:59:27.565Z,81.30
2019-03-16T04:01:58.318Z,80.80
2019-03-16T04:04:29.415Z,80.40
2019-03-16T04:07:00.398Z,80.10
2019-03-16T04:09:31.198Z,80.10
2019-03-16T04:12:02.544Z,80.20
2019-03-16T04:14:33.417Z,80.60
2019-03-16T04:17:04.149Z,80.70
2019-03-16T04:19:35.050Z,80.80
2019-03-16T04:22:05.829Z,81.10
2019-03-16T04:24:36.570Z,81.40
2019-03-16T04:27:15.960Z,81.90
2019-03-16T04:29:39.707Z,81.80
2019-03-16T04:32:10.489Z,81.40
2019-03-16T04:34:44.741Z,81.30
2019-03-16T04:37:13.588Z,81.60
2019-03-16T04:39:44.936Z,81.50
2019-03-16T04:42:15.918Z,81.70
2019-03-16T04:44:46.728Z,82.40
2019-03-16T04:47:17.654Z,82.10
2019-03-16T04:49:48.532Z,82.30
2019-03-16T04:52:19.539Z,82.40
2019-03-16T04:54:50.681Z,82.50
2019-03-16T04:57:21.558Z,82.90
2019-03-16T04:59:52.400Z,83.60
2019-03-16T05:02:23.259Z,83.00
2019-03-16T05:05:38.210Z,83.20
2019-03-16T05:08:09.217Z,82.90
2019-03-16T05:11:00.145Z,82.60
2019-03-16T05:13:31.417Z,82.00
2019-03-16T05:16:02.120Z,82.30
2019-03-16T05:18:32.869Z,82.00
2019-03-16T05:21:03.753Z,82.40
2019-03-16T05:23:34.718Z,82.00
2019-03-16T05:26:05.584Z,81.80
2019-03-16T05:28:36.514Z,82.00
2019-03-16T05:31:07.516Z,81.80
2019-03-16T05:33:38.264Z,81.80
2019-03-16T05:36:09.229Z,82.20
2019-03-16T05:38:40.086Z,82.00
2019-03-16T05:41:11.131Z,82.00
2019-03-16T05:43:42.045Z,82.20
2019-03-16T05:46:12.810Z,82.00
2019-03-16T05:48:43.508Z,82.20
2019-03-16T05:51:14.426Z,82.10
2019-03-16T05:53:45.316Z,82.20
2019-03-16T05:56:15.961Z,82.40
2019-03-16T05:58:46.862Z,82.20
2019-03-16T06:01:17.638Z,81.90
2019-03-16T06:03:48.370Z,81.50
2019-03-16T06:06:19.277Z,81.10
2019-03-16T06:08:50.055Z,81.30
2019-03-16T06:11:20.782Z,82.30
2019-03-16T06:13:51.685Z,81.50
2019-03-16T06:16:23.072Z,81.80
2019-03-16T06:18:53.916Z,82.00
2019-03-16T06:21:24.779Z,82.10
2019-03-16T06:23:55.554Z,82.10
2019-03-16T06:26:26.526Z,82.00
2019-03-16T06:28:57.525Z,82.00
2019-03-16T06:31:28.333Z,82.20
2019-03-16T06:33:59.144Z,82.20
2019-03-16T06:36:30.548Z,82.10
2019-03-16T06:39:01.459Z,82.20
2019-03-16T06:41:32.260Z,82.20
2019-03-16T06:44:03.577Z,82.40
2019-03-16T06:46:34.351Z,82.40
2019-03-16T06:49:05.094Z,82.40
2019-03-16T06:51:36.239Z,81.90
2019-03-16T06:54:07.183Z,81.70
2019-03-16T06:56:37.915Z,80.90
2019-03-16T06:59:08.943Z,81.20
2019-03-16T07:01:39.693Z,81.70
2019-03-16T07:04:10.631Z,81.70
2019-03-16T07:06:42.764Z,81.80
2019-03-16T07:09:13.637Z,82.20
2019-03-16T07:11:44.324Z,81.70
2019-03-16T07:14:15.232Z,82.60
2019-03-16T07:16:46.214Z,82.70
2019-03-16T07:19:17.402Z,82.50
2019-03-16T07:21:48.294Z,82.20
2019-03-16T07:24:19.071Z,82.50
2019-03-16T07:26:49.802Z,82.40
2019-03-16T07:29:20.749Z,82.30
2019-03-16T07:31:57.054Z,82.20
2019-03-16T07:34:28.265Z,81.60
2019-03-16T07:36:59.307Z,80.80
2019-03-16T07:39:30.329Z,81.20
2019-03-16T07:42:01.222Z,81.60
2019-03-16T07:44:34.077Z,82.50
2019-03-16T07:47:13.272Z,82.50
2019-03-16T07:49:44.013Z,82.70
2019-03-16T07:52:14.777Z,82.80
2019-03-16T07:54:45.745Z,82.90
2019-03-16T07:57:16.556Z,82.20
2019-03-16T07:59:47.294Z,82.10
2019-03-16T08:02:18.195Z,81.50
2019-03-16T08:04:48.930Z,81.10
2019-03-16T08:07:19.666Z,81.10
2019-03-16T08:09:50.471Z,81.40
2019-03-16T08:12:21.444Z,81.70
2019-03-16T08:14:52.288Z,81.60
2019-03-16T08:17:23.195Z,81.70
2019-03-16T08:19:54.366Z,81.30
2019-03-16T08:22:25.096Z,80.90
2019-03-16T08:24:58.394Z,81.40
2019-03-16T08:27:33.597Z,81.20
2019-03-16T08:30:04.527Z,81.00
2019-03-16T08:32:35.165Z,80.60
2019-03-16T08:35:07.010Z,80.40
2019-03-16T08:37:37.932Z,80.50
2019-03-16T08:40:10.624Z,80.80
2019-03-16T08:43:01.833Z,80.90
2019-03-16T08:45:32.632Z,81.10
2019-03-16T08:48:03.678Z,81.40
2019-03-16T08:50:34.525Z,81.70
2019-03-16T08:53:05.249Z,82.00
2019-03-16T08:55:35.983Z,81.70
2019-03-16T08:58:08.224Z,81.40
2019-03-16T09:00:38.955Z,81.20
2019-03-16T09:03:09.720Z,81.10
2019-03-16T09:05:40.629Z,81.10
2019-03-16T09:08:11.368Z,81.00
2019-03-16T09:10:41.965Z,81.00
2019-03-16T09:13:12.994Z,81.10
2019-03-16T09:15:43.921Z,81.10
2019-03-16T09:18:14.714Z,81.20
2019-03-16T09:20:45.928Z,80.80
2019-03-16T09:23:16.739Z,81.10
2019-03-16T09:26:07.766Z,81.10
2019-03-16T09:28:38.455Z,81.20
2019-03-16T09:31:09.233Z,81.50
2019-03-16T09:33:40.120Z,81.70
2019-03-16T09:36:10.891Z,81.80
2019-03-16T09:38:41.632Z,81.30
2019-03-16T09:41:12.602Z,81.60
2019-03-16T09:43:43.408Z,81.30
2019-03-16T09:46:14.168Z,81.10
2019-03-16T09:48:45.420Z,81.30
2019-03-16T09:51:16.269Z,81.40
2019-03-16T09:53:47.147Z,81.50
2019-03-16T09:56:18.046Z,80.90
2019-03-16T09:58:48.810Z,81.50
2019-03-16T10:01:19.540Z,81.70
2019-03-16T10:03:50.657Z,82.00
2019-03-16T10:06:21.457Z,82.00
2019-03-16T10:08:52.267Z,82.00
2019-03-16T10:11:23.172Z,82.20
2019-03-16T10:13:54.041Z,81.80
2019-03-16T10:16:24.876Z,81.60
2019-03-16T10:18:55.758Z,80.90
2019-03-16T10:21:26.881Z,80.40
2019-03-16T10:23:57.597Z,80.30
2019-03-16T10:26:28.512Z,80.40
2019-03-16T10:29:18.295Z,80.30
2019-03-16T10:31:49.321Z,80.20
2019-03-16T10:34:20.172Z,80.50
2019-03-16T10:36:50.900Z,80.80
2019-03-16T10:39:21.850Z,81.00
2019-03-16T10:41:52.572Z,80.90
2019-03-16T10:44:29.400Z,81.10
2019-03-16T10:47:00.228Z,81.10
2019-03-16T10:49:31.257Z,81.30
2019-03-16T10:52:02.138Z,81.40
2019-03-16T10:54:32.801Z,81.50
2019-03-16T10:57:04.491Z,81.50
2019-03-16T10:59:35.464Z,81.60
2019-03-16T11:02:06.136Z,81.60
2019-03-16T11:04:36.913Z,81.50
2019-03-16T11:07:07.816Z,81.40
2019-03-16T11:09:38.496Z,81.40
2019-03-16T11:12:09.223Z,81.30
2019-03-16T11:14:41.151Z,81.20
2019-03-16T11:17:12.099Z,81.20
2019-03-16T11:19:42.833Z,81.20
2019-03-16T11:22:14.188Z,81.10
2019-03-16T11:24:44.951Z,81.20
2019-03-16T11:27:17.209Z,81.40
2019-03-16T11:29:47.981Z,81.50
2019-03-16T11:32:18.867Z,81.80
2019-03-16T11:34:49.692Z,81.60
2019-03-16T11:37:20.600Z,81.80
2019-03-16T11:39:51.311Z,82.20
2019-03-16T11:42:22.105Z,82.20
2019-03-16T11:44:53.045Z,82.20
2019-03-16T11:47:23.717Z,82.20
2019-03-16T11:49:54.762Z,82.20
2019-03-16T11:52:25.632Z,82.20
2019-03-16T11:54:56.295Z,82.50
2019-03-16T11:57:26.978Z,82.50
2019-03-16T11:59:57.834Z,82.50
2019-03-16T12:02:28.497Z,82.70
2019-03-16T12:04:59.247Z,82.80
2019-03-16T12:07:30.086Z,83.00
2019-03-16T12:10:00.926Z,83.10
2019-03-16T12:12:31.793Z,83.20
2019-03-16T12:15:13.565Z,83.30
2019-03-16T12:17:44.384Z,83.20
2019-03-16T12:20:18.177Z,83.40
2019-03-16T12:22:48.525Z,83.50
2019-03-16T12:25:37.490Z,83.90
2019-03-16T12:28:08.363Z,84.20
2019-03-16T12:30:39.166Z,84.30
2019-03-16T12:33:09.893Z,84.40
2019-03-16T12:35:40.688Z,84.40
2019-03-16T12:38:11.533Z,84.40
2019-03-16T12:40:42.241Z,84.40
2019-03-16T12:43:12.972Z,84.50
2019-03-16T12:45:44.024Z,84.60
2019-03-16T12:48:14.858Z,84.60
2019-03-16T12:50:46.011Z,84.70
2019-03-16T12:53:16.829Z,84.70
2019-03-16T12:55:47.876Z,84.60
2019-03-16T12:58:18.623Z,84.70
2019-03-16T13:00:49.602Z,84.70
2019-03-16T13:03:20.556Z,84.50
2019-03-16T13:05:51.417Z,84.60
2019-03-16T13:08:22.316Z,84.80
2019-03-16T13:10:53.013Z,84.80
2019-03-16T13:13:23.988Z,85.00
2019-03-16T13:15:54.897Z,85.20
2019-03-16T13:18:25.909Z,85.30
2019-03-16T13:20:56.648Z,85.40
2019-03-16T13:23:28.544Z,85.50
2019-03-16T13:25:59.614Z,85.50
2019-03-16T13:28:30.361Z,85.60
2019-03-16T13:31:01.264Z,85.60
2019-03-16T13:33:33.920Z,85.80
2019-03-16T13:36:04.504Z,85.80
2019-03-16T13:38:35.456Z,85.90
2019-03-16T13:41:08.163Z,86.10
2019-03-16T13:43:46.349Z,86.10
2019-03-16T13:46:17.115Z,85.90
2019-03-16T13:49:11.013Z,85.90
2019-03-16T13:52:05.062Z,86.00
2019-03-16T13:54:37.306Z,86.20
2019-03-16T13:57:07.982Z,86.40
2019-03-16T13:59:38.715Z,86.50
2019-03-16T14:02:09.637Z,86.50
2019-03-16T14:04:55.744Z,86.70
2019-03-16T14:07:26.919Z,86.70
2019-03-16T14:09:57.607Z,86.70
2019-03-16T14:12:28.447Z,86.60
2019-03-16T14:14:59.917Z,86.60
2019-03-16T14:17:31.081Z,86.50
2019-03-16T14:20:01.876Z,86.60
2019-03-16T14:22:34.158Z,86.70
2019-03-16T14:25:07.551Z,86.80
2019-03-16T14:27:39.098Z,87.00
2019-03-16T14:30:35.126Z,87.00
2019-03-16T14:32:53.061Z,87.00
2019-03-16T14:35:23.928Z,87.10
2019-03-16T14:37:54.775Z,87.20
2019-03-16T14:40:26.032Z,87.20
2019-03-16T14:42:56.861Z,87.20
2019-03-16T14:45:42.055Z,87.40
2019-03-16T14:48:12.824Z,87.40
2019-03-16T14:50:44.827Z,87.60
2019-03-16T14:53:16.154Z,87.80
2019-03-16T14:55:47.955Z,87.80
2019-03-16T14:58:18.798Z,87.80
2019-03-16T15:00:50.876Z,87.80
2019-03-16T15:03:38.080Z,87.70
2019-03-16T15:06:08.972Z,87.60
2019-03-16T15:08:39.750Z,87.50
2019-03-16T15:11:10.456Z,87.50
2019-03-16T15:13:43.338Z,87.40
2019-03-16T15:16:14.105Z,87.60
2019-03-16T15:18:51.874Z,87.70
2019-03-16T15:21:22.590Z,87.60
2019-03-16T15:24:04.615Z,88.50
2019-03-16T15:26:35.388Z,87.70
2019-03-16T15:29:06.691Z,87.80
2019-03-16T15:31:37.862Z,87.80
2019-03-16T15:34:48.193Z,88.70
2019-03-16T15:37:19.151Z,87.80
2019-03-16T15:39:50.025Z,87.90
2019-03-16T15:42:36.993Z,87.90
2019-03-16T15:45:16.017Z,88.00
2019-03-16T15:47:46.975Z,88.40
2019-03-16T15:50:18.458Z,89.00
2019-03-16T15:52:49.301Z,88.70
2019-03-16T15:55:45.621Z,88.70
2019-03-16T15:58:16.332Z,88.80
2019-03-16T16:00:47.169Z,88.80
2019-03-16T16:03:18.070Z,88.90
2019-03-16T16:05:58.708Z,89.00
2019-03-16T16:08:29.567Z,88.80
2019-03-16T16:11:01.375Z,88.70
2019-03-16T16:13:32.444Z,88.60
2019-03-16T16:16:03.362Z,88.70
2019-03-16T16:18:34.233Z,88.60
2019-03-16T16:21:04.963Z,88.90
2019-03-16T16:23:36.986Z,88.80
2019-03-16T16:26:18.323Z,88.80
2019-03-16T16:28:49.311Z,89.10
2019-03-16T16:31:20.391Z,89.10
2019-03-16T16:33:51.300Z,89.10
2019-03-16T16:36:22.078Z,89.20
2019-03-16T16:38:52.804Z,89.70
2019-03-16T16:41:25.621Z,89.20
2019-03-16T16:44:10.564Z,89.20
2019-03-16T16:46:41.575Z,89.40
2019-03-16T16:49:12.294Z,89.30
2019-03-16T16:51:43.280Z,89.40
2019-03-16T16:54:14.321Z,89.40
2019-03-16T16:56:45.558Z,89.50
2019-03-16T16:59:16.191Z,89.70
2019-03-16T17:01:47.101Z,89.60
2019-03-16T17:04:17.875Z,89.80
2019-03-16T17:06:48.709Z,89.80
2019-03-16T17:09:19.613Z,89.70
2019-03-16T17:11:50.409Z,89.90
2019-03-16T17:14:23.955Z,89.80
2019-03-16T17:16:54.877Z,89.80
2019-03-16T17:19:25.667Z,90.20
2019-03-16T17:21:56.630Z,89.60
2019-03-16T17:24:54.399Z,89.60
2019-03-16T17:27:25.372Z,89.60
2019-03-16T17:29:55.779Z,90.10
2019-03-16T17:32:26.838Z,89.60
2019-03-16T17:35:01.283Z,89.50
2019-03-16T17:37:32.206Z,89.50
2019-03-16T17:40:02.982Z,89.60
2019-03-16T17:42:33.890Z,89.60
2019-03-16T17:45:21.866Z,89.60
2019-03-16T17:48:07.555Z,89.70
2019-03-16T17:54:33.149Z,90.10
2019-03-16T17:57:17.086Z,90.00
2019-03-16T17:59:56.514Z,90.00
2019-03-16T18:02:50.577Z,90.00
2019-03-16T18:05:11.945Z,89.90
2019-03-16T18:07:43.031Z,90.00
2019-03-16T18:10:17.257Z,90.00
2019-03-16T18:12:48.029Z,90.00
2019-03-16T18:15:37.563Z,90.00
2019-03-16T18:18:08.476Z,90.00
2019-03-16T18:20:39.193Z,90.10
2019-03-16T18:23:10.376Z,90.10
2019-03-16T18:25:41.419Z,90.00
2019-03-16T18:28:12.461Z,90.00
2019-03-16T18:30:43.489Z,90.00
2019-03-16T18:33:16.078Z,90.10
2019-03-16T18:35:53.277Z,90.10
2019-03-16T18:38:23.992Z,90.10
2019-03-16T18:40:54.740Z,90.10
2019-03-16T18:43:25.743Z,90.10
2019-03-16T18:45:56.508Z,90.10
2019-03-16T18:48:30.247Z,90.10
2019-03-16T18:50:59.645Z,90.20
2019-03-16T18:57:37.660Z,90.40
2019-03-16T19:00:13.991Z,90.30
2019-03-16T19:03:21.798Z,90.40
2019-03-16T19:05:52.565Z,90.20
2019-03-16T19:08:59.876Z,90.40
2019-03-16T19:11:29.582Z,90.40
2019-03-16T19:14:39.742Z,90.30
2019-03-16T19:17:10.577Z,90.30
2019-03-16T19:19:41.431Z,90.30
2019-03-16T19:22:12.313Z,90.40
2019-03-16T19:25:02.445Z,90.40
2019-03-16T19:27:33.587Z,90.30
2019-03-16T19:30:04.424Z,90.30
2019-03-16T19:32:37.618Z,90.30
2019-03-16T19:35:13.939Z,90.20
2019-03-16T19:37:44.722Z,90.20
2019-03-16T19:40:19.337Z,90.10
2019-03-16T19:42:50.294Z,90.00
2019-03-16T19:45:50.970Z,90.00
2019-03-16T19:48:21.715Z,90.00
2019-03-16T19:50:52.489Z,90.00
2019-03-16T19:53:23.397Z,90.00
2019-03-16T19:55:54.128Z,90.10
2019-03-16T19:58:25.116Z,90.20
2019-03-16T20:00:56.363Z,90.20
2019-03-16T20:03:34.179Z,90.10
2019-03-16T20:06:29.980Z,90.10
2019-03-16T20:09:00.932Z,90.10
2019-03-16T20:11:31.727Z,90.10
2019-03-16T20:14:02.622Z,90.10
2019-03-16T20:16:33.545Z,90.10
2019-03-16T20:19:04.546Z,90.20
2019-03-16T20:21:35.564Z,90.30
2019-03-16T20:24:06.433Z,90.30
2019-03-16T20:26:37.163Z,90.30
2019-03-16T20:29:08.134Z,90.20
2019-03-16T20:31:46.799Z,90.30
2019-03-16T20:34:11.105Z,90.40
2019-03-16T20:36:42.312Z,90.40
2019-03-16T20:39:13.027Z,90.40
2019-03-16T20:41:43.760Z,90.40
2019-03-16T20:44:30.375Z,90.50
2019-03-16T20:47:01.173Z,90.50
2019-03-16T20:49:32.256Z,90.50
2019-03-16T20:52:03.209Z,90.60
2019-03-16T20:55:34.343Z,90.60
2019-03-16T20:58:08.516Z,90.70
2019-03-16T21:00:39.296Z,90.80
2019-03-16T21:03:16.008Z,90.70
2019-03-16T21:05:42.321Z,90.80
2019-03-16T21:09:02.194Z,90.70
2019-03-16T21:11:22.341Z,90.70
2019-03-16T21:13:53.117Z,90.70
2019-03-16T21:16:23.848Z,90.70
2019-03-16T21:18:54.753Z,90.70
2019-03-16T21:21:25.521Z,90.70
2019-03-16T21:23:56.254Z,90.70
2019-03-16T21:26:27.161Z,90.70
2019-03-16T21:28:57.946Z,90.60
2019-03-16T21:31:28.628Z,90.60
2019-03-16T21:34:16.164Z,90.60
2019-03-16T21:36:46.937Z,90.70
2019-03-16T21:39:19.011Z,90.70
2019-03-16T21:41:49.873Z,90.80
2019-03-16T21:44:20.587Z,90.80
2019-03-16T21:46:51.306Z,90.80
2019-03-16T21:49:22.210Z,90.80
2019-03-16T21:51:52.946Z,90.80
2019-03-16T21:54:23.685Z,90.70
2019-03-16T21:56:54.613Z,90.70
2019-03-16T21:59:26.370Z,90.70
2019-03-16T22:01:57.474Z,90.70
2019-03-16T22:04:28.381Z,90.70
2019-03-16T22:06:59.151Z,90.70
2019-03-16T22:09:30.146Z,90.70
2019-03-16T22:12:01.095Z,90.70
2019-03-16T22:14:32.076Z,90.70
2019-03-16T22:17:03.118Z,90.80
2019-03-16T22:19:34.114Z,90.80
2019-03-16T22:22:04.887Z,90.90
2019-03-16T22:24:35.633Z,91.00
2019-03-16T22:27:06.491Z,91.00
2019-03-16T22:29:37.397Z,91.00
2019-03-16T22:32:08.143Z,91.10
2019-03-16T22:34:39.042Z,91.10
2019-03-16T22:37:09.809Z,91.10
2019-03-16T22:39:41.213Z,91.60
2019-03-16T22:42:32.244Z,91.20
2019-03-16T22:45:02.984Z,91.20
2019-03-16T22:47:33.960Z,91.20
2019-03-16T22:50:05.410Z,91.70
2019-03-16T22:52:36.143Z,91.40
2019-03-16T22:55:07.654Z,91.40
2019-03-16T22:57:38.562Z,91.50
2019-03-16T23:00:17.829Z,91.60
2019-03-16T23:02:48.771Z,91.60
2019-03-16T23:05:19.537Z,91.60
2019-03-16T23:07:50.291Z,91.70
2019-03-16T23:10:21.491Z,91.70
2019-03-16T23:12:52.256Z,91.70
2019-03-16T23:15:22.992Z,91.70
2019-03-16T23:17:53.896Z,91.70
2019-03-16T23:20:24.629Z,91.70
2019-03-16T23:22:55.630Z,91.80
2019-03-16T23:25:26.824Z,91.90
2019-03-16T23:27:57.607Z,91.90
2019-03-16T23:30:28.451Z,92.00
2019-03-16T23:32:59.450Z,92.00
2019-03-16T23:35:30.265Z,92.40
2019-03-16T23:38:00.966Z,92.00
2019-03-16T23:40:32.475Z,92.00
2019-03-16T23:43:03.240Z,92.00
2019-03-16T23:45:33.987Z,92.10
2019-03-16T23:48:04.787Z,92.30
2019-03-16T23:50:35.767Z,92.30
2019-03-16T23:53:06.592Z,92.30
2019-03-16T23:55:37.505Z,92.40
2019-03-16T23:58:08.265Z,92.50
